Time;durP1;ratioP1;P1;durP2;ratioP2;P2;SDS_P1;SDS_P2;PMS_P1;PMS_P2;Temp;Humidity;BMP_temperature;BMP_pressure;BME280_temperature;BME280_humidity;BME280_pressure;Samples;Min_cycle;Max_cycle;Signal;HPM_P1;HPM_P2
2022/04/21 00:00:15;;;;;;;;;;;4.60;65.90;;;;;;5026140;28;87942;-49
2022/04/21 00:02:41;;;;;;;;;;;4.60;65.80;;;;;;5025223;28;87751;-49
2022/04/21 00:05:10;;;;;;;;;;;4.60;65.80;;;;;;5025937;28;86861;-49
2022/04/21 00:07:37;;;;;;;;;;;4.70;65.70;;;;;;5026023;28;87961;-49
2022/04/21 00:10:07;;;;;;;;;;;4.70;65.50;;;;;;5025074;28;89395;-50
2022/04/21 00:12:34;;;;;;;;;;;4.70;65.30;;;;;;5026088;28;86825;-49
2022/04/21 00:15:00;;;;;;;;;;;4.70;65.40;;;;;;5025925;28;86901;-49
2022/04/21 00:17:27;;;;;;;;;;;4.70;65.40;;;;;;5028750;28;87788;-49
2022/04/21 00:19:52;;;;;;;;;;;4.70;65.40;;;;;;5026002;28;88051;-49
2022/04/21 00:25:03;;;;;;;;;;;4.60;65.30;;;;;;5026317;28;87197;-49
2022/04/21 00:27:29;;;;;;;;;;;4.60;65.40;;;;;;5026262;28;87070;-49
2022/04/21 00:29:55;;;;;;;;;;;4.70;65.50;;;;;;5025875;28;87073;-49
2022/04/21 00:32:21;;;;;;;;;;;4.60;65.40;;;;;;5026178;28;86885;-49
2022/04/21 00:34:47;;;;;;;;;;;4.70;65.30;;;;;;5025159;28;88071;-49
2022/04/21 00:37:13;;;;;;;;;;;4.60;65.30;;;;;;5025575;28;87291;-49
2022/04/21 00:39:39;;;;;;;;;;;4.70;65.30;;;;;;5028645;28;87092;-49
2022/04/21 00:42:05;;;;;;;;;;;4.70;65.20;;;;;;5025210;28;88439;-49
2022/04/21 00:44:31;;;;;;;;;;;4.70;65.10;;;;;;5025819;28;86810;-49
2022/04/21 00:46:59;;;;;;;;;;;4.70;65.20;;;;;;5025624;28;87868;-50
2022/04/21 00:49:26;;;;;;;;;;;4.70;65.30;;;;;;5025215;28;88559;-49
2022/04/21 00:51:52;;;;;;;;;;;4.60;65.20;;;;;;5026063;28;86167;-50
2022/04/21 00:54:18;;;;;;;;;;;4.60;65.30;;;;;;5026004;28;86939;-49
2022/04/21 00:56:44;;;;;;;;;;;4.60;65.30;;;;;;5025362;28;87392;-49
2022/04/21 00:59:10;;;;;;;;;;;4.60;65.20;;;;;;5024887;28;87985;-49
2022/04/21 01:04:22;;;;;;;;;;;4.60;65.30;;;;;;5025841;28;86869;-49
2022/04/21 01:06:51;;;;;;;;;;;4.60;65.30;;;;;;5025203;28;87078;-49
2022/04/21 01:09:16;;;;;;;;;;;4.50;65.30;;;;;;5025061;28;88698;-49
2022/04/21 01:11:42;;;;;;;;;;;4.60;65.30;;;;;;5025364;28;86848;-49
2022/04/21 01:14:08;;;;;;;;;;;4.60;65.20;;;;;;5027901;28;86829;-49
2022/04/21 01:16:34;;;;;;;;;;;4.50;65.30;;;;;;5029194;28;87195;-49
2022/04/21 01:18:59;;;;;;;;;;;4.60;65.30;;;;;;5028748;28;87044;-49
2022/04/21 01:21:25;;;;;;;;;;;4.50;65.30;;;;;;5028997;28;86803;-49
2022/04/21 01:23:51;;;;;;;;;;;4.50;65.10;;;;;;5030526;28;89585;-49
2022/04/21 01:26:17;;;;;;;;;;;4.50;65.20;;;;;;5028955;28;87727;-49
2022/04/21 01:28:45;;;;;;;;;;;4.50;65.30;;;;;;5028177;28;87514;-49
2022/04/21 01:31:11;;;;;;;;;;;4.50;65.20;;;;;;5028443;28;86863;-49
2022/04/21 01:33:37;;;;;;;;;;;4.50;65.20;;;;;;5028651;28;87064;-49
2022/04/21 01:36:04;;;;;;;;;;;4.50;65.30;;;;;;5027834;28;88908;-49
2022/04/21 01:41:14;;;;;;;;;;;4.50;65.30;;;;;;5029215;28;86352;-49
2022/04/21 01:43:41;;;;;;;;;;;4.50;65.30;;;;;;5028015;28;88708;-49
2022/04/21 01:46:09;;;;;;;;;;;4.50;65.20;;;;;;5031297;28;86875;-49
2022/04/21 01:48:34;;;;;;;;;;;4.50;65.20;;;;;;5027297;28;89563;-49
2022/04/21 01:51:00;;;;;;;;;;;4.50;65.20;;;;;;5028355;28;86880;-49
2022/04/21 01:53:26;;;;;;;;;;;4.40;65.30;;;;;;5028298;28;87869;-49
2022/04/21 01:55:53;;;;;;;;;;;4.50;65.20;;;;;;5028029;28;87455;-50
2022/04/21 01:58:18;;;;;;;;;;;4.40;65.10;;;;;;5027952;28;86911;-49
2022/04/21 02:00:44;;;;;;;;;;;4.50;65.20;;;;;;5028199;28;87873;-49
2022/04/21 02:03:10;;;;;;;;;;;4.50;65.20;;;;;;5028011;28;87827;-51
2022/04/21 02:05:35;;;;;;;;;;;4.50;65.10;;;;;;5031140;28;86299;-49
2022/04/21 02:08:02;;;;;;;;;;;4.40;65.00;;;;;;5027604;28;87833;-49
2022/04/21 02:10:30;;;;;;;;;;;4.40;65.30;;;;;;5028160;28;87526;-49
2022/04/21 02:12:57;;;;;;;;;;;4.40;65.20;;;;;;5027390;28;88149;-49
2022/04/21 02:15:23;;;;;;;;;;;4.40;65.10;;;;;;5027578;28;88618;-49
2022/04/21 02:17:50;;;;;;;;;;;4.40;65.30;;;;;;5027973;28;86904;-49
2022/04/21 02:20:16;;;;;;;;;;;4.40;65.30;;;;;;5028280;28;86927;-49
2022/04/21 02:22:45;;;;;;;;;;;4.40;65.20;;;;;;5027455;28;88376;-49
2022/04/21 02:25:11;;;;;;;;;;;4.40;65.10;;;;;;5027177;28;87215;-49
2022/04/21 02:27:38;;;;;;;;;;;4.40;65.80;;;;;;5030267;28;87910;-50
2022/04/21 02:30:04;;;;;;;;;;;4.40;65.20;;;;;;5028053;28;86342;-49
2022/04/21 02:32:30;;;;;;;;;;;4.30;65.20;;;;;;5027583;28;86865;-49
2022/04/21 02:34:56;;;;;;;;;;;4.40;65.30;;;;;;5026980;28;88589;-50
2022/04/21 02:37:22;;;;;;;;;;;4.30;65.10;;;;;;5026953;28;87793;-49
2022/04/21 02:39:48;;;;;;;;;;;4.40;65.20;;;;;;5027496;28;89001;-49
2022/04/21 02:42:14;;;;;;;;;;;4.40;65.10;;;;;;5027035;28;88397;-49
2022/04/21 02:44:39;;;;;;;;;;;4.40;65.00;;;;;;5027492;28;86907;-49
2022/04/21 02:47:08;;;;;;;;;;;4.30;65.00;;;;;;5027637;28;86874;-49
2022/04/21 02:49:37;;;;;;;;;;;4.30;65.00;;;;;;5029889;28;87604;-49
2022/04/21 02:52:07;;;;;;;;;;;4.30;65.10;;;;;;5027277;28;86996;-49
2022/04/21 02:57:20;;;;;;;;;;;4.30;65.00;;;;;;5027685;28;86841;-49
2022/04/21 02:59:53;;;;;;;;;;;4.30;65.00;;;;;;5027354;28;86886;-49
2022/04/21 03:02:19;;;;;;;;;;;4.30;65.10;;;;;;5026345;28;87841;-49
2022/04/21 03:04:46;;;;;;;;;;;4.30;65.10;;;;;;5027206;28;86982;-49
2022/04/21 03:07:13;;;;;;;;;;;4.20;65.10;;;;;;5026823;28;87814;-49
2022/04/21 03:09:39;;;;;;;;;;;4.20;65.10;;;;;;5026777;28;88357;-49
2022/04/21 03:12:05;;;;;;;;;;;4.30;64.90;;;;;;5029931;28;86866;-49
2022/04/21 03:14:31;;;;;;;;;;;4.20;65.00;;;;;;5026672;28;88217;-49
2022/04/21 03:16:57;;;;;;;;;;;4.20;65.10;;;;;;5027235;28;87033;-49
2022/04/21 03:19:23;;;;;;;;;;;4.20;65.10;;;;;;5027508;28;87167;-49
2022/04/21 03:24:33;;;;;;;;;;;4.20;65.10;;;;;;5027247;28;86844;-49
2022/04/21 03:26:59;;;;;;;;;;;4.20;65.00;;;;;;5026296;28;87786;-49
2022/04/21 03:29:24;;;;;;;;;;;4.20;65.60;;;;;;5026693;28;87465;-49
2022/04/21 03:31:50;;;;;;;;;;;4.20;65.00;;;;;;5026843;28;86850;-49
2022/04/21 03:34:16;;;;;;;;;;;4.20;65.00;;;;;;5029343;28;87812;-49
2022/04/21 03:36:45;;;;;;;;;;;4.20;65.00;;;;;;5026296;28;86853;-49
2022/04/21 03:39:11;;;;;;;;;;;4.20;65.00;;;;;;5026663;28;87956;-49
2022/04/21 03:41:37;;;;;;;;;;;4.20;65.00;;;;;;5026341;28;87738;-49
2022/04/21 03:44:03;;;;;;;;;;;4.20;64.90;;;;;;5026514;28;86220;-49
2022/04/21 03:46:30;;;;;;;;;;;4.20;65.00;;;;;;5026501;28;87124;-49
2022/04/21 03:48:55;;;;;;;;;;;4.20;65.60;;;;;;5026191;28;87700;-50
2022/04/21 03:51:21;;;;;;;;;;;4.10;65.00;;;;;;5025859;28;87850;-50
2022/04/21 03:53:47;;;;;;;;;;;4.10;65.00;;;;;;5029133;28;87748;-49
2022/04/21 03:56:12;;;;;;;;;;;4.10;64.80;;;;;;5026638;28;86845;-49
2022/04/21 03:58:38;;;;;;;;;;;4.10;65.00;;;;;;5026737;28;86925;-50
2022/04/21 04:01:03;;;;;;;;;;;4.10;64.90;;;;;;5026221;28;87476;-49
2022/04/21 04:03:29;;;;;;;;;;;4.10;64.90;;;;;;5026280;28;86951;-49
2022/04/21 04:05:55;;;;;;;;;;;4.10;64.90;;;;;;5025972;28;88002;-49
2022/04/21 04:11:05;;;;;;;;;;;4.00;65.10;;;;;;5026510;28;86845;-49
2022/04/21 04:13:32;;;;;;;;;;;4.00;65.20;;;;;;5026166;28;88071;-49
2022/04/21 04:16:00;;;;;;;;;;;4.00;65.10;;;;;;5028047;28;89587;-49
2022/04/21 04:18:25;;;;;;;;;;;4.00;64.90;;;;;;5026224;28;88882;-49
2022/04/21 04:20:51;;;;;;;;;;;4.00;65.00;;;;;;5025862;28;88384;-49
2022/04/21 04:23:19;;;;;;;;;;;4.00;65.00;;;;;;5026369;28;86967;-49
2022/04/21 04:25:44;;;;;;;;;;;4.00;65.00;;;;;;5026366;28;87223;-49
2022/04/21 04:28:10;;;;;;;;;;;4.00;64.90;;;;;;5025934;28;87181;-48
2022/04/21 04:30:39;;;;;;;;;;;4.00;64.90;;;;;;5025863;28;86791;-48
2022/04/21 04:33:08;;;;;;;;;;;4.00;65.10;;;;;;5026469;28;87208;-49
2022/04/21 04:35:34;;;;;;;;;;;4.00;65.00;;;;;;5025466;28;87641;-50
2022/04/21 04:38:00;;;;;;;;;;;4.00;65.10;;;;;;5028819;28;87145;-49
2022/04/21 04:40:26;;;;;;;;;;;4.00;65.10;;;;;;5025074;28;88548;-49
2022/04/21 04:42:55;;;;;;;;;;;4.00;65.00;;;;;;5025925;28;86811;-49
2022/04/21 04:48:05;;;;;;;;;;;4.00;65.00;;;;;;5027101;28;87173;-49
2022/04/21 04:50:31;;;;;;;;;;;3.90;65.20;;;;;;5029701;28;87179;-49
2022/04/21 04:53:00;;;;;;;;;;;3.90;65.30;;;;;;5029738;28;87223;-49
2022/04/21 04:55:26;;;;;;;;;;;3.90;65.20;;;;;;5029098;28;86894;-49
2022/04/21 04:57:52;;;;;;;;;;;3.90;65.20;;;;;;5029643;28;86094;-50
2022/04/21 05:00:18;;;;;;;;;;;3.90;65.00;;;;;;5031805;28;87148;-49
2022/04/21 05:02:44;;;;;;;;;;;4.00;65.00;;;;;;5029153;28;87409;-49
2022/04/21 05:05:11;;;;;;;;;;;3.90;65.20;;;;;;5028085;28;88024;-49
2022/04/21 05:07:39;;;;;;;;;;;3.90;65.20;;;;;;5028762;28;88495;-49
2022/04/21 05:10:05;;;;;;;;;;;3.90;65.30;;;;;;5029144;28;86837;-49
2022/04/21 05:12:31;;;;;;;;;;;3.90;65.20;;;;;;5029289;28;86959;-49
2022/04/21 05:14:56;;;;;;;;;;;3.90;65.30;;;;;;5028563;28;87606;-49
2022/04/21 05:17:22;;;;;;;;;;;3.80;65.40;;;;;;5029012;28;86858;-49
2022/04/21 05:19:48;;;;;;;;;;;3.80;65.30;;;;;;5028622;28;86888;-49
2022/04/21 05:22:16;;;;;;;;;;;3.80;65.30;;;;;;5031825;28;87943;-49
2022/04/21 05:24:44;;;;;;;;;;;3.80;65.30;;;;;;5028877;28;87231;-49
2022/04/21 05:27:11;;;;;;;;;;;3.90;65.30;;;;;;5028598;28;87500;-49
2022/04/21 05:32:26;;;;;;;;;;;3.80;65.40;;;;;;5025751;28;86867;-49
2022/04/21 05:34:52;;;;;;;;;;;3.80;65.50;;;;;;5028264;28;88760;-49
2022/04/21 05:37:17;;;;;;;;;;;3.80;65.50;;;;;;5028612;28;87163;-49
2022/04/21 05:39:43;;;;;;;;;;;3.80;65.60;;;;;;5028643;28;87066;-49
2022/04/21 05:42:12;;;;;;;;;;;3.80;65.40;;;;;;5028172;28;89098;-49
2022/04/21 05:44:38;;;;;;;;;;;3.80;65.40;;;;;;5031255;28;87136;-49
2022/04/21 05:47:04;;;;;;;;;;;3.70;65.60;;;;;;5028554;28;86919;-49
2022/04/21 05:49:29;;;;;;;;;;;3.70;65.70;;;;;;5028417;28;86906;-49
2022/04/21 05:51:57;;;;;;;;;;;3.70;65.90;;;;;;5028664;28;86859;-50
2022/04/21 05:54:24;;;;;;;;;;;3.60;65.90;;;;;;5027678;28;88459;-49
2022/04/21 05:56:50;;;;;;;;;;;3.60;65.80;;;;;;5028248;28;86919;-49
2022/04/21 05:59:16;;;;;;;;;;;3.60;65.90;;;;;;5028188;28;87869;-49
2022/04/21 06:01:42;;;;;;;;;;;3.60;65.90;;;;;;5027837;28;87986;-49
2022/04/21 06:04:08;;;;;;;;;;;3.60;66.30;;;;;;5031342;28;86910;-51
2022/04/21 06:06:33;;;;;;;;;;;3.60;66.30;;;;;;5027594;28;87742;-49
2022/04/21 06:09:00;;;;;;;;;;;3.60;66.30;;;;;;5028191;28;86837;-49
2022/04/21 06:11:25;;;;;;;;;;;3.50;66.30;;;;;;5028550;28;87891;-49
2022/04/21 06:13:51;;;;;;;;;;;3.50;66.50;;;;;;5027718;28;88553;-49
2022/04/21 06:16:17;;;;;;;;;;;3.50;66.50;;;;;;5027854;28;87200;-49
2022/04/21 06:18:42;;;;;;;;;;;3.50;66.50;;;;;;5027405;28;88049;-49
2022/04/21 06:21:08;;;;;;;;;;;3.50;66.60;;;;;;5027803;28;87482;-49
2022/04/21 06:23:35;;;;;;;;;;;3.50;66.40;;;;;;5027219;28;87014;-49
2022/04/21 06:26:03;;;;;;;;;;;3.50;66.20;;;;;;5030437;28;88110;-49
2022/04/21 06:28:29;;;;;;;;;;;3.50;66.40;;;;;;5027967;28;87176;-50
2022/04/21 06:30:55;;;;;;;;;;;3.60;66.50;;;;;;5027802;28;87919;-49
2022/04/21 06:33:20;;;;;;;;;;;3.50;66.30;;;;;;5027338;28;87599;-50
2022/04/21 06:35:46;;;;;;;;;;;3.50;66.20;;;;;;5028199;28;86098;-49
2022/04/21 06:38:12;;;;;;;;;;;3.50;66.40;;;;;;5028004;28;86896;-49
2022/04/21 06:40:38;;;;;;;;;;;3.60;66.50;;;;;;5027572;28;87132;-49
2022/04/21 06:48:01;;;;;;;;;;;3.50;66.40;;;;;;5027160;28;87777;-49
2022/04/21 06:48:33;;;;;;;;;;;3.50;66.50;;;;;;5030406;28;87222;-49
2022/04/21 06:50:59;;;;;;;;;;;3.50;66.50;;;;;;5027288;28;88417;-50
2022/04/21 06:53:24;;;;;;;;;;;3.50;66.70;;;;;;5027311;28;86909;-49
2022/04/21 06:55:50;;;;;;;;;;;3.50;66.60;;;;;;5027594;28;86872;-50
2022/04/21 06:58:15;;;;;;;;;;;3.50;66.60;;;;;;5027412;28;87272;-49
2022/04/21 07:00:41;;;;;;;;;;;3.50;66.70;;;;;;5027308;28;88104;-49
2022/04/21 07:03:08;;;;;;;;;;;3.50;66.70;;;;;;5026661;28;86968;-49
2022/04/21 07:05:34;;;;;;;;;;;3.50;66.60;;;;;;5027093;28;88007;-49
2022/04/21 07:08:00;;;;;;;;;;;3.50;66.60;;;;;;5026095;28;89541;-49
2022/04/21 07:10:27;;;;;;;;;;;3.50;66.70;;;;;;5029531;28;86873;-49
2022/04/21 07:12:52;;;;;;;;;;;3.50;66.70;;;;;;5026596;28;87797;-49
2022/04/21 07:15:18;;;;;;;;;;;3.50;66.70;;;;;;5027086;28;87086;-49
2022/04/21 07:17:44;;;;;;;;;;;3.50;66.90;;;;;;5027099;28;87133;-49
2022/04/21 07:20:11;;;;;;;;;;;3.50;66.60;;;;;;5026683;28;87620;-52
2022/04/21 07:22:37;;;;;;;;;;;3.50;66.60;;;;;;5027176;28;87025;-49
2022/04/21 07:25:04;;;;;;;;;;;3.50;66.60;;;;;;5027431;28;88158;-51
2022/04/21 07:27:30;;;;;;;;;;;3.50;66.80;;;;;;5026458;28;89303;-50
2022/04/21 07:29:57;;;;;;;;;;;3.50;66.70;;;;;;5026719;28;86916;-50
2022/04/21 07:32:22;;;;;;;;;;;3.50;66.80;;;;;;5028986;28;87781;-49
2022/04/21 07:34:48;;;;;;;;;;;3.50;66.90;;;;;;5025594;28;87175;-50
2022/04/21 07:37:14;;;;;;;;;;;3.50;66.80;;;;;;5026587;28;87902;-52
2022/04/21 07:39:40;;;;;;;;;;;3.50;67.20;;;;;;5026145;28;87676;-49
2022/04/21 07:42:09;;;;;;;;;;;3.50;66.90;;;;;;5026691;28;87201;-49
2022/04/21 07:44:36;;;;;;;;;;;3.80;66.30;;;;;;5026918;28;86931;-49
2022/04/21 07:47:02;;;;;;;;;;;3.70;66.40;;;;;;5026709;28;86809;-49
2022/04/21 07:49:46;;;;;;;;;;;3.80;65.90;;;;;;5027030;28;86455;-49
2022/04/21 07:55:04;;;;;;;;;;;3.70;66.20;;;;;;5029184;28;86881;-49
2022/04/21 07:57:30;;;;;;;;;;;3.70;66.30;;;;;;5025805;28;87870;-49
2022/04/21 07:59:56;;;;;;;;;;;3.70;66.30;;;;;;5025991;28;87692;-50
2022/04/21 08:02:21;;;;;;;;;;;3.70;66.30;;;;;;5026761;28;86837;-49
2022/04/21 08:04:48;;;;;;;;;;;3.60;66.20;;;;;;5026428;28;88036;-49
2022/04/21 08:07:14;;;;;;;;;;;3.70;66.50;;;;;;5025735;28;88599;-49
2022/04/21 08:09:40;;;;;;;;;;;3.70;66.30;;;;;;5026559;28;87004;-49
2022/04/21 08:12:07;;;;;;;;;;;3.60;66.30;;;;;;5026256;28;87073;-53
2022/04/21 08:14:33;;;;;;;;;;;3.60;66.60;;;;;;5029274;28;87730;-49
2022/04/21 08:16:59;;;;;;;;;;;3.60;66.80;;;;;;5026134;28;87096;-49
2022/04/21 08:19:24;;;;;;;;;;;3.60;66.90;;;;;;5025734;28;88711;-49
2022/04/21 08:21:50;;;;;;;;;;;3.60;67.30;;;;;;5025733;28;87806;-49
2022/04/21 08:32:37;;;;;;;;;;;3.60;67.20;;;;;;5029971;28;86860;-49
2022/04/21 08:35:03;;;;;;;;;;;3.60;67.00;;;;;;5029157;28;88713;-49
2022/04/21 08:37:29;;;;;;;;;;;3.60;67.10;;;;;;5032411;28;86967;-49
2022/04/21 08:39:57;;;;;;;;;;;3.60;67.00;;;;;;5029436;28;87490;-49
2022/04/21 08:42:25;;;;;;;;;;;3.60;67.20;;;;;;5029480;28;86967;-49
2022/04/21 08:44:52;;;;;;;;;;;3.60;67.40;;;;;;5029437;28;87496;-49
2022/04/21 08:47:19;;;;;;;;;;;3.60;67.40;;;;;;5028255;28;89635;-49
2022/04/21 08:49:49;;;;;;;;;;;3.60;67.30;;;;;;5029379;28;86836;-49
2022/04/21 08:52:15;;;;;;;;;;;3.60;67.50;;;;;;5029611;28;87700;-49
2022/04/21 08:54:42;;;;;;;;;;;3.60;67.30;;;;;;5029129;28;87491;-49
2022/04/21 08:57:08;;;;;;;;;;;3.60;67.40;;;;;;5029103;28;87216;-49
2022/04/21 08:59:35;;;;;;;;;;;3.60;67.40;;;;;;5031807;28;87933;-49
2022/04/21 09:02:00;;;;;;;;;;;3.60;67.50;;;;;;5029349;28;87178;-49
2022/04/21 09:04:28;;;;;;;;;;;3.60;67.60;;;;;;5029920;28;87116;-49
2022/04/21 09:06:54;;;;;;;;;;;3.60;67.80;;;;;;5028577;28;88412;-49
2022/04/21 09:09:21;;;;;;;;;;;3.60;68.00;;;;;;5029009;28;86970;-49
2022/04/21 09:11:51;;;;;;;;;;;3.60;68.00;;;;;;5028474;28;87771;-49
2022/04/21 09:14:17;;;;;;;;;;;3.60;68.10;;;;;;5028836;28;87617;-49
2022/04/21 09:16:43;;;;;;;;;;;3.60;67.80;;;;;;5028739;28;86948;-49
2022/04/21 09:19:09;;;;;;;;;;;3.70;68.10;;;;;;5028959;28;87128;-49
2022/04/21 09:21:36;;;;;;;;;;;3.60;68.00;;;;;;5031339;28;87425;-49
2022/04/21 09:24:17;;;;;;;;;;;3.60;68.10;;;;;;5028406;28;87023;-49
2022/04/21 09:26:44;;;;;;;;;;;3.70;68.10;;;;;;5028375;28;88529;-49
2022/04/21 09:29:13;;;;;;;;;;;3.60;68.40;;;;;;5029208;28;86233;-49
2022/04/21 09:31:42;;;;;;;;;;;3.70;68.20;;;;;;5028914;28;87035;-49
2022/04/21 09:34:08;;;;;;;;;;;3.70;68.00;;;;;;5027297;28;87770;-49
2022/04/21 09:36:35;;;;;;;;;;;3.70;68.10;;;;;;5027952;28;87797;-49
2022/04/21 09:39:02;;;;;;;;;;;3.70;68.10;;;;;;5028844;28;87176;-49
2022/04/21 09:41:29;;;;;;;;;;;3.70;68.10;;;;;;5028164;28;88652;-49
2022/04/21 09:44:04;;;;;;;;;;;3.70;68.30;;;;;;5031483;28;86868;-49
2022/04/21 09:46:34;;;;;;;;;;;3.70;68.50;;;;;;5028454;28;86861;-49
2022/04/21 09:48:59;;;;;;;;;;;3.70;68.50;;;;;;5028432;28;86899;-49
2022/04/21 09:51:27;;;;;;;;;;;3.70;68.50;;;;;;5028421;28;88032;-49
2022/04/21 09:54:00;;;;;;;;;;;3.80;68.70;;;;;;5028497;28;88263;-49
2022/04/21 09:56:32;;;;;;;;;;;3.80;68.90;;;;;;5028188;28;86896;-49
2022/04/21 09:59:02;;;;;;;;;;;3.80;68.80;;;;;;5028400;28;87821;-49
2022/04/21 10:01:28;;;;;;;;;;;3.80;68.70;;;;;;5027214;28;89480;-49
2022/04/21 10:03:54;;;;;;;;;;;3.80;69.00;;;;;;5028363;28;86895;-49
2022/04/21 10:06:22;;;;;;;;;;;3.80;68.70;;;;;;5030428;28;88101;-49
2022/04/21 10:08:51;;;;;;;;;;;3.80;68.90;;;;;;5028110;28;86882;-49
2022/04/21 10:11:23;;;;;;;;;;;3.80;69.00;;;;;;5028173;28;87835;-49
2022/04/21 10:13:53;;;;;;;;;;;3.80;69.00;;;;;;5027603;28;87621;-49
2022/04/21 10:16:19;;;;;;;;;;;3.80;69.40;;;;;;5027814;28;86916;-49
2022/04/21 10:18:50;;;;;;;;;;;3.80;69.40;;;;;;5028748;28;86871;-49
2022/04/21 10:21:20;;;;;;;;;;;3.80;69.50;;;;;;5027510;28;88440;-50
2022/04/21 10:23:46;;;;;;;;;;;3.80;69.60;;;;;;5028149;28;87148;-49
2022/04/21 10:26:12;;;;;;;;;;;3.90;69.70;;;;;;5029931;28;88001;-49
2022/04/21 10:28:38;;;;;;;;;;;3.90;69.90;;;;;;5027791;28;86868;-49
2022/04/21 10:31:22;;;;;;;;;;;3.90;70.00;;;;;;5027810;28;87838;-49
2022/04/21 10:33:59;;;;;;;;;;;3.90;70.50;;;;;;5027367;28;87773;-49
2022/04/21 10:36:34;;;;;;;;;;;3.90;70.50;;;;;;5027517;28;86788;-49
2022/04/21 10:39:10;;;;;;;;;;;3.90;70.90;;;;;;5027770;28;87081;-49
2022/04/21 10:41:37;;;;;;;;;;;3.90;70.80;;;;;;5027212;28;87720;-49
2022/04/21 10:44:03;;;;;;;;;;;3.90;70.80;;;;;;5028083;28;86123;-49
2022/04/21 10:46:30;;;;;;;;;;;3.90;70.90;;;;;;5026622;28;86924;-49
2022/04/21 10:48:58;;;;;;;;;;;3.90;71.10;;;;;;5030040;28;88518;-49
2022/04/21 10:57:11;;;;;;;;;;;4.00;71.20;;;;;;5026948;28;87804;-50
2022/04/21 10:57:16;;;;;;;;;;;4.00;71.20;;;;;;5027568;28;86880;-49
2022/04/21 11:00:04;;;;;;;;;;;4.00;71.40;;;;;;5027419;28;87024;-51
2022/04/21 11:02:41;;;;;;;;;;;4.00;71.50;;;;;;5026917;28;88461;-49
2022/04/21 11:05:22;;;;;;;;;;;4.10;71.40;;;;;;5026872;28;86861;-49
2022/04/21 11:07:54;;;;;;;;;;;4.10;71.50;;;;;;5027225;28;87860;-49
2022/04/21 11:10:27;;;;;;;;;;;4.10;71.80;;;;;;5027652;28;86062;-49
2022/04/21 11:12:53;;;;;;;;;;;4.10;71.90;;;;;;5030066;28;86857;-49
2022/04/21 11:15:40;;;;;;;;;;;4.10;72.10;;;;;;5026925;28;87810;-49
2022/04/21 11:18:10;;;;;;;;;;;4.20;72.30;;;;;;5012849;28;88068;-49
2022/04/21 11:20:37;;;;;;;;;;;4.20;72.30;;;;;;5027070;28;88890;-49
2022/04/21 11:23:03;;;;;;;;;;;4.20;72.70;;;;;;5026627;28;87651;-49
2022/04/21 11:25:32;;;;;;;;;;;4.20;72.70;;;;;;5026899;28;87015;-49
2022/04/21 11:27:59;;;;;;;;;;;4.20;72.40;;;;;;5027159;28;86874;-49
2022/04/21 11:30:25;;;;;;;;;;;4.30;72.50;;;;;;5026585;28;88554;-49
2022/04/21 11:32:51;;;;;;;;;;;4.30;72.90;;;;;;5026928;28;87131;-49
2022/04/21 11:35:17;;;;;;;;;;;4.30;73.30;;;;;;5029689;28;87979;-49
2022/04/21 11:37:44;;;;;;;;;;;4.30;73.00;;;;;;5027065;28;87155;-49
2022/04/21 11:40:21;;;;;;;;;;;4.30;73.30;;;;;;5026861;28;87847;-49
2022/04/21 11:42:49;;;;;;;;;;;4.40;73.50;;;;;;5025871;28;88384;-49
2022/04/21 11:45:25;;;;;;;;;;;4.40;73.40;;;;;;5008865;28;87018;-49
2022/04/21 11:47:51;;;;;;;;;;;4.40;73.70;;;;;;5026691;28;87858;-49
2022/04/21 11:50:18;;;;;;;;;;;4.50;73.70;;;;;;5026335;28;88291;-49
2022/04/21 11:52:46;;;;;;;;;;;4.50;73.80;;;;;;5026854;28;86898;-49
2022/04/21 11:55:15;;;;;;;;;;;4.50;73.80;;;;;;5026502;28;88109;-49
2022/04/21 11:57:42;;;;;;;;;;;4.50;73.80;;;;;;5028726;28;87681;-49
2022/04/21 12:00:08;;;;;;;;;;;4.60;74.20;;;;;;5027128;28;86837;-49
2022/04/21 12:08:04;;;;;;;;;;;4.60;74.30;;;;;;5026231;28;87825;-49
2022/04/21 12:10:29;;;;;;;;;;;4.60;74.40;;;;;;5025944;28;89008;-49
2022/04/21 12:12:55;;;;;;;;;;;4.60;74.80;;;;;;5026659;28;86953;-49
2022/04/21 12:15:28;;;;;;;;;;;4.60;74.50;;;;;;5026024;28;87486;-50
2022/04/21 12:17:58;;;;;;;;;;;4.60;74.90;;;;;;5025884;28;87619;-49
2022/04/21 12:20:24;;;;;;;;;;;4.70;74.80;;;;;;5028979;28;86912;-49
2022/04/21 12:22:49;;;;;;;;;;;4.70;74.80;;;;;;5026082;28;87387;-49
2022/04/21 12:25:16;;;;;;;;;;;4.70;75.00;;;;;;5026614;28;86527;-49
2022/04/21 12:27:42;;;;;;;;;;;4.70;75.20;;;;;;5026071;28;86884;-49
2022/04/21 12:30:09;;;;;;;;;;;4.70;75.30;;;;;;5025628;28;87681;-50
2022/04/21 12:32:36;;;;;;;;;;;4.70;75.00;;;;;;5025403;28;87983;-49
2022/04/21 12:35:06;;;;;;;;;;;4.80;75.00;;;;;;5026058;28;88666;-49
2022/04/21 12:37:33;;;;;;;;;;;4.80;75.60;;;;;;5025030;28;88999;-49
2022/04/21 12:40:00;;;;;;;;;;;4.80;75.10;;;;;;5028895;28;86773;-49
2022/04/21 12:42:27;;;;;;;;;;;4.80;75.50;;;;;;5025571;28;88614;-49
2022/04/21 12:44:53;;;;;;;;;;;4.80;75.30;;;;;;5025917;28;87316;-49
2022/04/21 12:47:20;;;;;;;;;;;4.90;75.70;;;;;;5025982;28;87857;-49
2022/04/21 12:50:06;;;;;;;;;;;4.90;75.40;;;;;;5026204;28;86588;-49
2022/04/21 12:52:55;;;;;;;;;;;4.90;75.60;;;;;;5026129;28;86881;-49
2022/04/21 12:55:22;;;;;;;;;;;5.00;75.90;;;;;;5014909;28;88021;-49
2022/04/21 12:58:02;;;;;;;;;;;5.00;76.00;;;;;;5024650;28;88540;-49
2022/04/21 13:00:29;;;;;;;;;;;5.00;75.80;;;;;;5025655;28;86945;-49
2022/04/21 13:02:54;;;;;;;;;;;5.00;75.90;;;;;;5028500;28;87044;-49
2022/04/21 13:05:20;;;;;;;;;;;5.10;76.00;;;;;;5025343;28;86938;-49
2022/04/21 13:07:46;;;;;;;;;;;5.10;76.00;;;;;;5025659;28;86751;-49
2022/04/21 13:10:12;;;;;;;;;;;5.10;75.90;;;;;;5028183;28;87554;-50
2022/04/21 13:12:38;;;;;;;;;;;5.10;76.20;;;;;;5028988;28;87017;-49
2022/04/21 13:15:04;;;;;;;;;;;5.20;76.10;;;;;;5029439;28;87066;-49
2022/04/21 13:17:30;;;;;;;;;;;5.20;76.00;;;;;;5028484;28;87838;-49
2022/04/21 13:19:56;;;;;;;;;;;5.20;75.90;;;;;;5029208;28;86898;-49
2022/04/21 13:22:21;;;;;;;;;;;5.20;76.00;;;;;;5028650;28;87900;-49
2022/04/21 13:24:47;;;;;;;;;;;5.20;76.00;;;;;;5031321;28;88697;-49
2022/04/21 13:27:16;;;;;;;;;;;5.30;76.20;;;;;;5028880;28;86932;-49
2022/04/21 13:29:42;;;;;;;;;;;5.30;76.20;;;;;;5028439;28;88532;-49
2022/04/21 13:34:52;;;;;;;;;;;5.30;76.20;;;;;;5029062;28;86853;-49
2022/04/21 13:37:17;;;;;;;;;;;5.30;76.30;;;;;;5028444;28;87465;-49
2022/04/21 13:39:43;;;;;;;;;;;5.30;76.30;;;;;;5029559;28;86270;-49
2022/04/21 13:42:09;;;;;;;;;;;5.40;76.20;;;;;;5028608;28;87686;-50
2022/04/21 13:44:35;;;;;;;;;;;5.30;76.50;;;;;;5027846;28;87608;-51
2022/04/21 13:47:01;;;;;;;;;;;5.40;76.70;;;;;;5030323;28;87813;-51
2022/04/21 13:49:26;;;;;;;;;;;5.40;76.20;;;;;;5027580;28;88590;-52
2022/04/21 13:51:52;;;;;;;;;;;5.40;76.20;;;;;;5027896;28;86891;-51
2022/04/21 13:54:18;;;;;;;;;;;5.40;76.40;;;;;;5027953;28;87917;-50
2022/04/21 13:56:44;;;;;;;;;;;5.50;76.40;;;;;;5027457;28;87645;-51
2022/04/21 13:59:10;;;;;;;;;;;5.50;76.60;;;;;;5028163;28;86980;-49
2022/04/21 14:01:36;;;;;;;;;;;5.50;76.60;;;;;;5028115;28;87212;-50
2022/04/21 14:04:01;;;;;;;;;;;5.50;76.50;;;;;;5028019;28;87972;-50
2022/04/21 14:06:27;;;;;;;;;;;5.60;76.40;;;;;;5027457;28;86910;-53
2022/04/21 14:08:53;;;;;;;;;;;5.60;76.90;;;;;;5030291;28;87038;-51
2022/04/21 14:11:18;;;;;;;;;;;5.60;76.60;;;;;;5026940;28;87811;-50
2022/04/21 14:13:45;;;;;;;;;;;5.70;76.60;;;;;;5027599;28;88751;-50
2022/04/21 14:16:12;;;;;;;;;;;5.60;76.60;;;;;;5027025;28;87785;-50
2022/04/21 14:18:38;;;;;;;;;;;5.70;77.10;;;;;;5027854;28;86872;-51
2022/04/21 14:21:06;;;;;;;;;;;5.70;76.70;;;;;;5026394;28;86883;-50
2022/04/21 14:23:35;;;;;;;;;;;5.70;76.90;;;;;;5027420;28;88471;-52
2022/04/21 14:26:03;;;;;;;;;;;5.80;77.10;;;;;;5027346;28;86877;-51
2022/04/21 14:28:28;;;;;;;;;;;5.80;77.10;;;;;;5030543;28;87020;-50
2022/04/21 14:30:54;;;;;;;;;;;5.80;77.10;;;;;;5027234;28;86845;-51
2022/04/21 14:33:21;;;;;;;;;;;5.80;77.00;;;;;;5027742;28;86783;-49
2022/04/21 14:35:50;;;;;;;;;;;5.80;77.00;;;;;;5025969;28;89669;-53
2022/04/21 14:46:42;;;;;;;;;;;5.90;77.50;;;;;;5021363;28;86913;-49
2022/04/21 14:49:08;;;;;;;;;;;5.90;77.20;;;;;;5027058;28;87771;-51
2022/04/21 14:51:34;;;;;;;;;;;5.90;77.20;;;;;;5029575;28;87922;-50
2022/04/21 14:54:00;;;;;;;;;;;6.00;77.40;;;;;;5027371;28;88337;-52
2022/04/21 14:56:26;;;;;;;;;;;6.00;77.10;;;;;;5026591;28;87641;-50
2022/04/21 14:58:51;;;;;;;;;;;6.00;77.40;;;;;;5026971;28;87167;-49
2022/04/21 15:01:17;;;;;;;;;;;6.00;77.40;;;;;;5026339;28;87824;-50
2022/04/21 15:03:43;;;;;;;;;;;6.00;77.70;;;;;;5026427;28;88718;-50
2022/04/21 15:06:09;;;;;;;;;;;6.00;77.60;;;;;;5026275;28;86927;-49
2022/04/21 15:08:34;;;;;;;;;;;6.00;77.40;;;;;;5026667;28;88005;-50
2022/04/21 15:11:00;;;;;;;;;;;6.00;77.40;;;;;;5026284;28;87754;-49
2022/04/21 15:13:26;;;;;;;;;;;6.10;77.30;;;;;;5029827;28;86953;-50
2022/04/21 15:15:54;;;;;;;;;;;6.10;77.50;;;;;;5026174;28;88600;-50
2022/04/21 15:18:20;;;;;;;;;;;6.10;77.30;;;;;;5027041;28;86601;-53
2022/04/21 15:20:46;;;;;;;;;;;6.10;77.20;;;;;;5026689;28;87261;-51
2022/04/21 15:23:12;;;;;;;;;;;6.10;77.70;;;;;;5025840;28;87113;-50
2022/04/21 15:25:38;;;;;;;;;;;6.10;77.60;;;;;;5026123;28;87825;-50